METAR Data
IDs: Format: Raw Decoded Include TAF

Data at: 1455 UTC 25 Jan 2020

METAR for:KHGR (Hagerstown Rgnl, MD, US)
Text:KHGR 251451Z 34005KT 1 1/4SM -RA BR FEW011 OVC016 05/03 A2987 RMK AO2 RAB14 P0001
Temperature: 5.0°C ( 41°F)
Dewpoint: 3.0°C ( 37°F) [RH = 87%]
Pressure (altimeter):29.87 inches Hg (1011.6 mb)
Winds:from the NNW (340 degrees) at 6 MPH (5 knots; 2.6 m/s)
Visibility: 1.25 sm ( 2.01 km)
Ceiling:1600 feet AGL
Clouds: few clouds at 1100 feet AGL, overcast cloud deck at 1600 feet AGL
Weather:-RA BR (light rain, mist)